sensor_id;sensor_type;location;lat;lon;timestamp;P1;durP1;ratioP1;P2;durP2;ratioP2
64738;SDS011;51175;51.186;0.276;2023-02-15T00:00:24;37.40;;;29.40;;
64738;SDS011;51175;51.186;0.276;2023-02-15T00:00:54;40.83;;;31.17;;
64738;SDS011;51175;51.186;0.276;2023-02-15T00:01:35;38.75;;;30.95;;
64738;SDS011;51175;51.186;0.276;2023-02-15T00:02:06;40.45;;;30.45;;
64738;SDS011;51175;51.186;0.276;2023-02-15T00:02:37;38.10;;;29.77;;
64738;SDS011;51175;51.186;0.276;2023-02-15T00:03:08;40.20;;;30.55;;
64738;SDS011;51175;51.186;0.276;2023-02-15T00:03:38;39.38;;;31.23;;
64738;SDS011;51175;51.186;0.276;2023-02-15T00:04:09;40.70;;;31.67;;
64738;SDS011;51175;51.186;0.276;2023-02-15T00:04:42;39.05;;;30.27;;
64738;SDS011;51175;51.186;0.276;2023-02-15T00:05:19;37.55;;;30.00;;
64738;SDS011;51175;51.186;0.276;2023-02-15T00:05:49;40.03;;;31.00;;
64738;SDS011;51175;51.186;0.276;2023-02-15T00:06:19;35.72;;;29.73;;
64738;SDS011;51175;51.186;0.276;2023-02-15T00:06:50;37.75;;;30.38;;
64738;SDS011;51175;51.186;0.276;2023-02-15T00:07:20;37.72;;;29.73;;
64738;SDS011;51175;51.186;0.276;2023-02-15T00:07:51;36.08;;;29.83;;
64738;SDS011;51175;51.186;0.276;2023-02-15T00:08:21;36.30;;;29.83;;
64738;SDS011;51175;51.186;0.276;2023-02-15T00:08:53;38.75;;;31.15;;
64738;SDS011;51175;51.186;0.276;2023-02-15T00:09:24;35.45;;;28.45;;
64738;SDS011;51175;51.186;0.276;2023-02-15T00:09:55;36.25;;;29.27;;
64738;SDS011;51175;51.186;0.276;2023-02-15T00:10:25;38.20;;;29.92;;
64738;SDS011;51175;51.186;0.276;2023-02-15T00:11:12;35.97;;;28.60;;
64738;SDS011;51175;51.186;0.276;2023-02-15T00:11:44;38.67;;;29.15;;
64738;SDS011;51175;51.186;0.276;2023-02-15T00:12:19;37.83;;;30.02;;
64738;SDS011;51175;51.186;0.276;2023-02-15T00:12:50;38.35;;;29.67;;
64738;SDS011;51175;51.186;0.276;2023-02-15T00:13:20;38.85;;;30.77;;
64738;SDS011;51175;51.186;0.276;2023-02-15T00:13:50;37.47;;;29.95;;
64738;SDS011;51175;51.186;0.276;2023-02-15T00:14:22;35.47;;;28.48;;
64738;SDS011;51175;51.186;0.276;2023-02-15T00:14:53;38.38;;;30.73;;
64738;SDS011;51175;51.186;0.276;2023-02-15T00:15:23;35.05;;;28.17;;
64738;SDS011;51175;51.186;0.276;2023-02-15T00:15:59;33.67;;;28.10;;
64738;SDS011;51175;51.186;0.276;2023-02-15T00:16:31;33.95;;;27.88;;
64738;SDS011;51175;51.186;0.276;2023-02-15T00:17:01;37.13;;;28.23;;
64738;SDS011;51175;51.186;0.276;2023-02-15T00:17:32;35.00;;;27.75;;
64738;SDS011;51175;51.186;0.276;2023-02-15T00:18:02;35.15;;;27.30;;
64738;SDS011;51175;51.186;0.276;2023-02-15T00:18:32;34.85;;;29.65;;
64738;SDS011;51175;51.186;0.276;2023-02-15T00:19:03;33.35;;;27.58;;
64738;SDS011;51175;51.186;0.276;2023-02-15T00:19:34;34.42;;;26.48;;
64738;SDS011;51175;51.186;0.276;2023-02-15T00:20:05;33.72;;;27.30;;
64738;SDS011;51175;51.186;0.276;2023-02-15T00:20:36;34.50;;;27.65;;
64738;SDS011;51175;51.186;0.276;2023-02-15T00:21:09;33.65;;;28.15;;
64738;SDS011;51175;51.186;0.276;2023-02-15T00:21:40;34.83;;;28.73;;
64738;SDS011;51175;51.186;0.276;2023-02-15T00:22:11;35.72;;;27.77;;
64738;SDS011;51175;51.186;0.276;2023-02-15T00:22:41;32.03;;;26.48;;
64738;SDS011;51175;51.186;0.276;2023-02-15T00:23:11;32.97;;;27.85;;
64738;SDS011;51175;51.186;0.276;2023-02-15T00:23:42;30.17;;;24.63;;
64738;SDS011;51175;51.186;0.276;2023-02-15T00:24:14;34.38;;;28.05;;
64738;SDS011;51175;51.186;0.276;2023-02-15T00:24:45;33.10;;;27.25;;
64738;SDS011;51175;51.186;0.276;2023-02-15T00:25:16;37.03;;;28.30;;
64738;SDS011;51175;51.186;0.276;2023-02-15T00:25:46;34.05;;;26.98;;
64738;SDS011;51175;51.186;0.276;2023-02-15T00:26:17;32.72;;;26.80;;
64738;SDS011;51175;51.186;0.276;2023-02-15T00:26:47;34.33;;;26.65;;
64738;SDS011;51175;51.186;0.276;2023-02-15T00:27:19;31.88;;;25.48;;
64738;SDS011;51175;51.186;0.276;2023-02-15T00:27:49;32.80;;;27.00;;
64738;SDS011;51175;51.186;0.276;2023-02-15T00:28:20;33.50;;;26.95;;
64738;SDS011;51175;51.186;0.276;2023-02-15T00:28:51;30.92;;;26.38;;
64738;SDS011;51175;51.186;0.276;2023-02-15T00:29:22;31.00;;;25.20;;
64738;SDS011;51175;51.186;0.276;2023-02-15T00:29:52;33.20;;;25.48;;
64738;SDS011;51175;51.186;0.276;2023-02-15T00:30:23;30.08;;;25.35;;
64738;SDS011;51175;51.186;0.276;2023-02-15T00:30:53;30.33;;;25.63;;
64738;SDS011;51175;51.186;0.276;2023-02-15T00:31:24;30.42;;;25.95;;
64738;SDS011;51175;51.186;0.276;2023-02-15T00:31:54;30.48;;;24.08;;
64738;SDS011;51175;51.186;0.276;2023-02-15T00:32:25;28.33;;;24.70;;
64738;SDS011;51175;51.186;0.276;2023-02-15T00:32:55;30.98;;;25.52;;
64738;SDS011;51175;51.186;0.276;2023-02-15T00:33:25;32.17;;;25.98;;
64738;SDS011;51175;51.186;0.276;2023-02-15T00:34:00;31.20;;;25.48;;
64738;SDS011;51175;51.186;0.276;2023-02-15T00:34:31;32.63;;;26.15;;
64738;SDS011;51175;51.186;0.276;2023-02-15T00:35:02;29.02;;;23.98;;
64738;SDS011;51175;51.186;0.276;2023-02-15T00:35:32;32.70;;;25.88;;
64738;SDS011;51175;51.186;0.276;2023-02-15T00:36:03;32.15;;;26.20;;
64738;SDS011;51175;51.186;0.276;2023-02-15T00:36:35;30.92;;;25.05;;
64738;SDS011;51175;51.186;0.276;2023-02-15T00:37:05;29.20;;;24.85;;
64738;SDS011;51175;51.186;0.276;2023-02-15T00:37:36;28.83;;;24.75;;
64738;SDS011;51175;51.186;0.276;2023-02-15T00:38:06;32.80;;;25.02;;
64738;SDS011;51175;51.186;0.276;2023-02-15T00:38:37;29.33;;;24.25;;
64738;SDS011;51175;51.186;0.276;2023-02-15T00:39:07;29.17;;;25.17;;
64738;SDS011;51175;51.186;0.276;2023-02-15T00:39:38;27.10;;;23.35;;
64738;SDS011;51175;51.186;0.276;2023-02-15T00:40:08;31.20;;;25.77;;
64738;SDS011;51175;51.186;0.276;2023-02-15T00:40:39;31.20;;;24.90;;
64738;SDS011;51175;51.186;0.276;2023-02-15T00:41:09;29.00;;;24.00;;
64738;SDS011;51175;51.186;0.276;2023-02-15T00:41:40;31.92;;;27.10;;
64738;SDS011;51175;51.186;0.276;2023-02-15T00:42:11;26.67;;;22.73;;
64738;SDS011;51175;51.186;0.276;2023-02-15T00:42:41;30.35;;;24.65;;
64738;SDS011;51175;51.186;0.276;2023-02-15T00:43:11;27.45;;;23.15;;
64738;SDS011;51175;51.186;0.276;2023-02-15T00:43:41;30.13;;;24.55;;
64738;SDS011;51175;51.186;0.276;2023-02-15T00:44:12;31.00;;;24.88;;
64738;SDS011;51175;51.186;0.276;2023-02-15T00:44:43;33.42;;;25.67;;
64738;SDS011;51175;51.186;0.276;2023-02-15T00:45:13;28.73;;;23.50;;
64738;SDS011;51175;51.186;0.276;2023-02-15T00:45:44;28.08;;;24.98;;
64738;SDS011;51175;51.186;0.276;2023-02-15T00:46:16;29.17;;;24.58;;
64738;SDS011;51175;51.186;0.276;2023-02-15T00:46:46;31.85;;;25.92;;
64738;SDS011;51175;51.186;0.276;2023-02-15T00:47:16;29.58;;;24.42;;
64738;SDS011;51175;51.186;0.276;2023-02-15T00:47:47;29.73;;;25.40;;
64738;SDS011;51175;51.186;0.276;2023-02-15T00:48:17;30.13;;;25.40;;
64738;SDS011;51175;51.186;0.276;2023-02-15T00:48:48;28.42;;;23.45;;
64738;SDS011;51175;51.186;0.276;2023-02-15T00:49:19;28.35;;;22.30;;
64738;SDS011;51175;51.186;0.276;2023-02-15T00:49:49;27.35;;;24.17;;
64738;SDS011;51175;51.186;0.276;2023-02-15T00:50:20;28.65;;;23.92;;
64738;SDS011;51175;51.186;0.276;2023-02-15T00:50:54;29.58;;;24.67;;
64738;SDS011;51175;51.186;0.276;2023-02-15T00:51:27;27.58;;;23.02;;
64738;SDS011;51175;51.186;0.276;2023-02-15T00:51:58;27.52;;;22.77;;
64738;SDS011;51175;51.186;0.276;2023-02-15T00:52:28;30.17;;;25.20;;
64738;SDS011;51175;51.186;0.276;2023-02-15T00:52:58;28.83;;;22.98;;
64738;SDS011;51175;51.186;0.276;2023-02-15T00:53:29;28.80;;;24.23;;
64738;SDS011;51175;51.186;0.276;2023-02-15T00:54:00;27.67;;;24.13;;
64738;SDS011;51175;51.186;0.276;2023-02-15T00:54:30;29.67;;;23.40;;
64738;SDS011;51175;51.186;0.276;2023-02-15T00:55:00;28.27;;;23.23;;
64738;SDS011;51175;51.186;0.276;2023-02-15T00:55:31;29.55;;;25.02;;
64738;SDS011;51175;51.186;0.276;2023-02-15T00:56:01;29.77;;;24.63;;
64738;SDS011;51175;51.186;0.276;2023-02-15T00:56:32;28.27;;;24.73;;
64738;SDS011;51175;51.186;0.276;2023-02-15T00:57:02;26.63;;;23.50;;
64738;SDS011;51175;51.186;0.276;2023-02-15T00:57:33;30.15;;;24.80;;
64738;SDS011;51175;51.186;0.276;2023-02-15T00:58:03;26.15;;;23.27;;
64738;SDS011;51175;51.186;0.276;2023-02-15T00:58:33;25.65;;;22.90;;
64738;SDS011;51175;51.186;0.276;2023-02-15T00:59:04;28.08;;;23.45;;
64738;SDS011;51175;51.186;0.276;2023-02-15T00:59:34;29.13;;;24.15;;
64738;SDS011;51175;51.186;0.276;2023-02-15T01:00:04;28.05;;;24.15;;
64738;SDS011;51175;51.186;0.276;2023-02-15T01:00:36;28.33;;;23.30;;
64738;SDS011;51175;51.186;0.276;2023-02-15T01:01:09;26.75;;;23.92;;
64738;SDS011;51175;51.186;0.276;2023-02-15T01:01:41;25.50;;;22.65;;
64738;SDS011;51175;51.186;0.276;2023-02-15T01:02:11;27.85;;;23.45;;
64738;SDS011;51175;51.186;0.276;2023-02-15T01:02:42;26.45;;;22.92;;
64738;SDS011;51175;51.186;0.276;2023-02-15T01:03:13;30.30;;;24.25;;
64738;SDS011;51175;51.186;0.276;2023-02-15T01:03:45;27.73;;;24.00;;
64738;SDS011;51175;51.186;0.276;2023-02-15T01:04:18;28.85;;;23.67;;
64738;SDS011;51175;51.186;0.276;2023-02-15T01:04:49;26.73;;;23.52;;
64738;SDS011;51175;51.186;0.276;2023-02-15T01:05:19;25.33;;;22.15;;
64738;SDS011;51175;51.186;0.276;2023-02-15T01:05:49;26.25;;;22.58;;
64738;SDS011;51175;51.186;0.276;2023-02-15T01:06:20;27.88;;;24.13;;
64738;SDS011;51175;51.186;0.276;2023-02-15T01:06:51;25.17;;;22.35;;
64738;SDS011;51175;51.186;0.276;2023-02-15T01:07:21;26.67;;;22.85;;
64738;SDS011;51175;51.186;0.276;2023-02-15T01:07:51;27.88;;;23.95;;
64738;SDS011;51175;51.186;0.276;2023-02-15T01:08:22;25.52;;;22.80;;
64738;SDS011;51175;51.186;0.276;2023-02-15T01:08:52;28.48;;;23.20;;
64738;SDS011;51175;51.186;0.276;2023-02-15T01:09:23;26.15;;;22.05;;
64738;SDS011;51175;51.186;0.276;2023-02-15T01:09:53;27.52;;;22.73;;
64738;SDS011;51175;51.186;0.276;2023-02-15T01:10:24;26.83;;;23.60;;
64738;SDS011;51175;51.186;0.276;2023-02-15T01:10:54;30.25;;;25.13;;
64738;SDS011;51175;51.186;0.276;2023-02-15T01:11:25;25.38;;;22.67;;
64738;SDS011;51175;51.186;0.276;2023-02-15T01:11:55;25.45;;;22.05;;
64738;SDS011;51175;51.186;0.276;2023-02-15T01:12:25;26.75;;;22.98;;
64738;SDS011;51175;51.186;0.276;2023-02-15T01:12:56;29.45;;;24.30;;
64738;SDS011;51175;51.186;0.276;2023-02-15T01:13:26;28.50;;;23.73;;
64738;SDS011;51175;51.186;0.276;2023-02-15T01:13:57;26.45;;;23.13;;
64738;SDS011;51175;51.186;0.276;2023-02-15T01:14:28;25.70;;;22.95;;
64738;SDS011;51175;51.186;0.276;2023-02-15T01:14:59;26.55;;;23.25;;
64738;SDS011;51175;51.186;0.276;2023-02-15T01:15:29;25.58;;;22.52;;
64738;SDS011;51175;51.186;0.276;2023-02-15T01:16:00;27.45;;;22.70;;
64738;SDS011;51175;51.186;0.276;2023-02-15T01:16:31;26.70;;;22.50;;
64738;SDS011;51175;51.186;0.276;2023-02-15T01:17:01;27.25;;;23.80;;
64738;SDS011;51175;51.186;0.276;2023-02-15T01:17:32;24.48;;;21.70;;
64738;SDS011;51175;51.186;0.276;2023-02-15T01:18:02;24.65;;;21.98;;
64738;SDS011;51175;51.186;0.276;2023-02-15T01:18:33;26.05;;;22.65;;
64738;SDS011;51175;51.186;0.276;2023-02-15T01:19:04;25.15;;;22.42;;
64738;SDS011;51175;51.186;0.276;2023-02-15T01:19:35;25.63;;;22.02;;
64738;SDS011;51175;51.186;0.276;2023-02-15T01:20:06;24.77;;;21.48;;
64738;SDS011;51175;51.186;0.276;2023-02-15T01:20:38;25.80;;;22.17;;
64738;SDS011;51175;51.186;0.276;2023-02-15T01:21:15;25.98;;;22.52;;
64738;SDS011;51175;51.186;0.276;2023-02-15T01:21:48;27.00;;;23.17;;
64738;SDS011;51175;51.186;0.276;2023-02-15T01:22:18;27.10;;;22.70;;
64738;SDS011;51175;51.186;0.276;2023-02-15T01:22:49;25.10;;;21.67;;
64738;SDS011;51175;51.186;0.276;2023-02-15T01:23:20;25.30;;;22.13;;
64738;SDS011;51175;51.186;0.276;2023-02-15T01:23:50;27.15;;;22.88;;
64738;SDS011;51175;51.186;0.276;2023-02-15T01:24:21;26.15;;;22.58;;
64738;SDS011;51175;51.186;0.276;2023-02-15T01:24:51;24.60;;;20.92;;
64738;SDS011;51175;51.186;0.276;2023-02-15T01:25:22;27.13;;;23.23;;
64738;SDS011;51175;51.186;0.276;2023-02-15T01:25:55;26.42;;;22.75;;
64738;SDS011;51175;51.186;0.276;2023-02-15T01:26:25;26.98;;;23.73;;
64738;SDS011;51175;51.186;0.276;2023-02-15T01:26:56;24.95;;;22.38;;
64738;SDS011;51175;51.186;0.276;2023-02-15T01:27:26;26.20;;;22.88;;
64738;SDS011;51175;51.186;0.276;2023-02-15T01:27:56;25.33;;;22.00;;
64738;SDS011;51175;51.186;0.276;2023-02-15T01:28:27;26.63;;;23.33;;
64738;SDS011;51175;51.186;0.276;2023-02-15T01:28:57;26.38;;;22.75;;
64738;SDS011;51175;51.186;0.276;2023-02-15T01:29:27;24.85;;;22.00;;
64738;SDS011;51175;51.186;0.276;2023-02-15T01:29:58;24.15;;;21.58;;
64738;SDS011;51175;51.186;0.276;2023-02-15T01:30:28;23.80;;;21.23;;
64738;SDS011;51175;51.186;0.276;2023-02-15T01:30:59;24.90;;;22.20;;
64738;SDS011;51175;51.186;0.276;2023-02-15T01:31:29;28.23;;;23.05;;
64738;SDS011;51175;51.186;0.276;2023-02-15T01:31:59;25.80;;;21.45;;
64738;SDS011;51175;51.186;0.276;2023-02-15T01:32:30;25.65;;;22.65;;
64738;SDS011;51175;51.186;0.276;2023-02-15T01:33:00;25.70;;;21.88;;
64738;SDS011;51175;51.186;0.276;2023-02-15T01:33:31;25.55;;;22.63;;
64738;SDS011;51175;51.186;0.276;2023-02-15T01:34:01;26.75;;;22.90;;
64738;SDS011;51175;51.186;0.276;2023-02-15T01:34:32;25.92;;;22.90;;
64738;SDS011;51175;51.186;0.276;2023-02-15T01:35:02;26.90;;;22.92;;
64738;SDS011;51175;51.186;0.276;2023-02-15T01:35:33;25.75;;;22.95;;
64738;SDS011;51175;51.186;0.276;2023-02-15T01:36:04;27.77;;;23.98;;
64738;SDS011;51175;51.186;0.276;2023-02-15T01:36:34;24.48;;;21.92;;
64738;SDS011;51175;51.186;0.276;2023-02-15T01:37:05;25.20;;;22.15;;
64738;SDS011;51175;51.186;0.276;2023-02-15T01:37:36;25.65;;;21.65;;
64738;SDS011;51175;51.186;0.276;2023-02-15T01:38:07;24.58;;;21.95;;
64738;SDS011;51175;51.186;0.276;2023-02-15T01:38:37;29.15;;;23.77;;
64738;SDS011;51175;51.186;0.276;2023-02-15T01:39:09;26.55;;;23.73;;
64738;SDS011;51175;51.186;0.276;2023-02-15T01:39:40;25.25;;;22.15;;
64738;SDS011;51175;51.186;0.276;2023-02-15T01:40:14;25.83;;;23.02;;
64738;SDS011;51175;51.186;0.276;2023-02-15T01:40:46;25.58;;;21.88;;
64738;SDS011;51175;51.186;0.276;2023-02-15T01:41:16;26.92;;;23.08;;
64738;SDS011;51175;51.186;0.276;2023-02-15T01:41:50;27.27;;;22.98;;
64738;SDS011;51175;51.186;0.276;2023-02-15T01:42:21;26.02;;;21.92;;
64738;SDS011;51175;51.186;0.276;2023-02-15T01:42:55;26.17;;;21.15;;
64738;SDS011;51175;51.186;0.276;2023-02-15T01:43:38;25.20;;;22.08;;
64738;SDS011;51175;51.186;0.276;2023-02-15T01:44:40;24.58;;;21.98;;
64738;SDS011;51175;51.186;0.276;2023-02-15T01:45:28;24.52;;;20.45;;
64738;SDS011;51175;51.186;0.276;2023-02-15T01:46:00;26.45;;;21.92;;
64738;SDS011;51175;51.186;0.276;2023-02-15T01:46:33;26.55;;;22.13;;
64738;SDS011;51175;51.186;0.276;2023-02-15T01:47:09;25.38;;;22.63;;
64738;SDS011;51175;51.186;0.276;2023-02-15T01:47:43;24.88;;;21.58;;
64738;SDS011;51175;51.186;0.276;2023-02-15T01:48:22;24.02;;;21.40;;
64738;SDS011;51175;51.186;0.276;2023-02-15T01:49:19;26.17;;;22.10;;
64738;SDS011;51175;51.186;0.276;2023-02-15T01:49:51;24.77;;;21.67;;
64738;SDS011;51175;51.186;0.276;2023-02-15T01:50:33;27.33;;;22.67;;
64738;SDS011;51175;51.186;0.276;2023-02-15T01:51:07;25.17;;;21.17;;
64738;SDS011;51175;51.186;0.276;2023-02-15T01:51:37;24.88;;;21.48;;
64738;SDS011;51175;51.186;0.276;2023-02-15T01:52:10;26.30;;;22.58;;
64738;SDS011;51175;51.186;0.276;2023-02-15T01:53:54;24.27;;;21.50;;
64738;SDS011;51175;51.186;0.276;2023-02-15T01:54:31;27.88;;;23.02;;
64738;SDS011;51175;51.186;0.276;2023-02-15T01:55:05;24.95;;;22.25;;
64738;SDS011;51175;51.186;0.276;2023-02-15T01:55:41;26.40;;;22.25;;
64738;SDS011;51175;51.186;0.276;2023-02-15T01:56:18;25.85;;;22.63;;
64738;SDS011;51175;51.186;0.276;2023-02-15T01:56:54;25.05;;;22.35;;
64738;SDS011;51175;51.186;0.276;2023-02-15T01:57:30;24.13;;;21.50;;
64738;SDS011;51175;51.186;0.276;2023-02-15T01:58:01;25.50;;;22.42;;
64738;SDS011;51175;51.186;0.276;2023-02-15T01:58:32;26.30;;;22.98;;
64738;SDS011;51175;51.186;0.276;2023-02-15T01:59:15;24.10;;;21.05;;
64738;SDS011;51175;51.186;0.276;2023-02-15T01:59:51;26.35;;;21.60;;
64738;SDS011;51175;51.186;0.276;2023-02-15T02:00:25;26.13;;;22.13;;
64738;SDS011;51175;51.186;0.276;2023-02-15T02:00:56;24.08;;;20.92;;
64738;SDS011;51175;51.186;0.276;2023-02-15T02:01:29;25.23;;;21.35;;
64738;SDS011;51175;51.186;0.276;2023-02-15T02:01:59;25.48;;;21.85;;
64738;SDS011;51175;51.186;0.276;2023-02-15T02:02:32;26.70;;;23.05;;
64738;SDS011;51175;51.186;0.276;2023-02-15T02:03:02;26.63;;;22.80;;
64738;SDS011;51175;51.186;0.276;2023-02-15T02:03:40;23.67;;;20.52;;
64738;SDS011;51175;51.186;0.276;2023-02-15T02:05:06;22.67;;;20.23;;
64738;SDS011;51175;51.186;0.276;2023-02-15T02:05:37;26.40;;;22.27;;
64738;SDS011;51175;51.186;0.276;2023-02-15T02:06:09;27.50;;;23.52;;
64738;SDS011;51175;51.186;0.276;2023-02-15T02:06:40;25.58;;;22.75;;
64738;SDS011;51175;51.186;0.276;2023-02-15T02:07:12;25.27;;;22.52;;
64738;SDS011;51175;51.186;0.276;2023-02-15T02:07:45;26.80;;;22.58;;
64738;SDS011;51175;51.186;0.276;2023-02-15T02:08:18;23.90;;;21.30;;
64738;SDS011;51175;51.186;0.276;2023-02-15T02:08:48;24.35;;;21.13;;
64738;SDS011;51175;51.186;0.276;2023-02-15T02:09:19;24.95;;;22.13;;
64738;SDS011;51175;51.186;0.276;2023-02-15T02:09:49;25.77;;;22.92;;
64738;SDS011;51175;51.186;0.276;2023-02-15T02:10:21;24.63;;;21.98;;
64738;SDS011;51175;51.186;0.276;2023-02-15T02:10:53;26.65;;;22.30;;
64738;SDS011;51175;51.186;0.276;2023-02-15T02:11:23;24.55;;;21.95;;
64738;SDS011;51175;51.186;0.276;2023-02-15T02:11:54;25.48;;;21.15;;
64738;SDS011;51175;51.186;0.276;2023-02-15T02:12:24;24.90;;;21.85;;
64738;SDS011;51175;51.186;0.276;2023-02-15T02:12:58;24.60;;;21.80;;
64738;SDS011;51175;51.186;0.276;2023-02-15T02:13:32;25.05;;;21.17;;
64738;SDS011;51175;51.186;0.276;2023-02-15T02:14:03;24.30;;;21.25;;
64738;SDS011;51175;51.186;0.276;2023-02-15T02:14:33;24.85;;;21.52;;
64738;SDS011;51175;51.186;0.276;2023-02-15T02:15:04;28.05;;;22.67;;
64738;SDS011;51175;51.186;0.276;2023-02-15T02:17:22;25.77;;;22.05;;
64738;SDS011;51175;51.186;0.276;2023-02-15T02:18:40;25.27;;;21.85;;
64738;SDS011;51175;51.186;0.276;2023-02-15T02:20:01;25.40;;;21.38;;
64738;SDS011;51175;51.186;0.276;2023-02-15T02:23:57;29.10;;;21.98;;
64738;SDS011;51175;51.186;0.276;2023-02-15T02:26:12;24.42;;;20.27;;
64738;SDS011;51175;51.186;0.276;2023-02-15T02:27:40;25.10;;;20.30;;
64738;SDS011;51175;51.186;0.276;2023-02-15T02:32:47;29.00;;;22.73;;
64738;SDS011;51175;51.186;0.276;2023-02-15T02:33:27;24.67;;;20.58;;
64738;SDS011;51175;51.186;0.276;2023-02-15T02:34:16;25.40;;;20.80;;
64738;SDS011;51175;51.186;0.276;2023-02-15T02:35:11;27.30;;;21.30;;
64738;SDS011;51175;51.186;0.276;2023-02-15T02:35:56;24.60;;;20.67;;
64738;SDS011;51175;51.186;0.276;2023-02-15T02:36:55;23.88;;;20.98;;
64738;SDS011;51175;51.186;0.276;2023-02-15T02:37:45;26.35;;;21.52;;
64738;SDS011;51175;51.186;0.276;2023-02-15T02:41:17;22.65;;;18.88;;
64738;SDS011;51175;51.186;0.276;2023-02-15T02:42:40;22.88;;;20.48;;
64738;SDS011;51175;51.186;0.276;2023-02-15T02:43:18;24.02;;;20.65;;
64738;SDS011;51175;51.186;0.276;2023-02-15T02:44:04;24.75;;;21.15;;
64738;SDS011;51175;51.186;0.276;2023-02-15T02:44:54;25.08;;;20.55;;
64738;SDS011;51175;51.186;0.276;2023-02-15T02:45:44;24.90;;;21.75;;
64738;SDS011;51175;51.186;0.276;2023-02-15T02:46:29;24.80;;;20.20;;
64738;SDS011;51175;51.186;0.276;2023-02-15T02:47:08;25.80;;;21.35;;
64738;SDS011;51175;51.186;0.276;2023-02-15T02:47:46;26.95;;;21.52;;
64738;SDS011;51175;51.186;0.276;2023-02-15T02:48:22;25.17;;;21.35;;
64738;SDS011;51175;51.186;0.276;2023-02-15T02:48:56;21.90;;;19.58;;
64738;SDS011;51175;51.186;0.276;2023-02-15T02:49:29;24.98;;;19.83;;
64738;SDS011;51175;51.186;0.276;2023-02-15T02:50:08;26.70;;;21.80;;
64738;SDS011;51175;51.186;0.276;2023-02-15T02:50:40;23.48;;;20.95;;
64738;SDS011;51175;51.186;0.276;2023-02-15T02:51:11;24.92;;;22.38;;
64738;SDS011;51175;51.186;0.276;2023-02-15T02:51:41;23.98;;;21.35;;
64738;SDS011;51175;51.186;0.276;2023-02-15T02:53:04;24.50;;;21.80;;
64738;SDS011;51175;51.186;0.276;2023-02-15T02:53:34;26.33;;;21.90;;
64738;SDS011;51175;51.186;0.276;2023-02-15T02:54:05;24.60;;;21.80;;
64738;SDS011;51175;51.186;0.276;2023-02-15T02:54:37;25.33;;;22.30;;
64738;SDS011;51175;51.186;0.276;2023-02-15T02:55:18;23.77;;;20.45;;
64738;SDS011;51175;51.186;0.276;2023-02-15T02:56:09;26.67;;;21.73;;
64738;SDS011;51175;51.186;0.276;2023-02-15T02:56:47;23.92;;;21.17;;
64738;SDS011;51175;51.186;0.276;2023-02-15T02:57:21;27.15;;;21.70;;
64738;SDS011;51175;51.186;0.276;2023-02-15T02:58:05;24.20;;;20.77;;
64738;SDS011;51175;51.186;0.276;2023-02-15T02:58:47;24.42;;;21.77;;
64738;SDS011;51175;51.186;0.276;2023-02-15T02:59:27;25.02;;;20.85;;
64738;SDS011;51175;51.186;0.276;2023-02-15T03:00:03;25.73;;;22.63;;
64738;SDS011;51175;51.186;0.276;2023-02-15T03:00:36;24.30;;;21.13;;
64738;SDS011;51175;51.186;0.276;2023-02-15T03:01:32;26.25;;;21.77;;
64738;SDS011;51175;51.186;0.276;2023-02-15T03:02:11;25.60;;;20.60;;
64738;SDS011;51175;51.186;0.276;2023-02-15T03:02:48;26.00;;;21.85;;
64738;SDS011;51175;51.186;0.276;2023-02-15T03:03:28;26.40;;;22.30;;
64738;SDS011;51175;51.186;0.276;2023-02-15T03:04:04;27.48;;;22.17;;
64738;SDS011;51175;51.186;0.276;2023-02-15T03:04:46;27.80;;;23.35;;
64738;SDS011;51175;51.186;0.276;2023-02-15T03:05:20;25.25;;;21.25;;
64738;SDS011;51175;51.186;0.276;2023-02-15T03:06:00;26.10;;;22.95;;
64738;SDS011;51175;51.186;0.276;2023-02-15T03:06:39;28.30;;;21.35;;
64738;SDS011;51175;51.186;0.276;2023-02-15T03:07:18;23.52;;;19.45;;
64738;SDS011;51175;51.186;0.276;2023-02-15T03:07:52;26.02;;;21.55;;
64738;SDS011;51175;51.186;0.276;2023-02-15T03:08:25;25.48;;;22.30;;
64738;SDS011;51175;51.186;0.276;2023-02-15T03:09:06;25.63;;;22.50;;
64738;SDS011;51175;51.186;0.276;2023-02-15T03:09:51;27.70;;;23.00;;
64738;SDS011;51175;51.186;0.276;2023-02-15T03:10:24;24.17;;;21.05;;
64738;SDS011;51175;51.186;0.276;2023-02-15T03:10:57;26.77;;;22.50;;
64738;SDS011;51175;51.186;0.276;2023-02-15T03:11:30;24.98;;;21.30;;
64738;SDS011;51175;51.186;0.276;2023-02-15T03:12:01;26.05;;;22.08;;
64738;SDS011;51175;51.186;0.276;2023-02-15T03:12:36;24.63;;;21.73;;
64738;SDS011;51175;51.186;0.276;2023-02-15T03:13:09;25.52;;;21.45;;
64738;SDS011;51175;51.186;0.276;2023-02-15T03:13:40;25.92;;;22.30;;
64738;SDS011;51175;51.186;0.276;2023-02-15T03:14:12;27.00;;;22.83;;
64738;SDS011;51175;51.186;0.276;2023-02-15T03:14:44;25.90;;;23.02;;
64738;SDS011;51175;51.186;0.276;2023-02-15T03:15:24;26.45;;;22.40;;
64738;SDS011;51175;51.186;0.276;2023-02-15T03:16:19;26.95;;;21.92;;
64738;SDS011;51175;51.186;0.276;2023-02-15T03:16:57;27.73;;;23.33;;
64738;SDS011;51175;51.186;0.276;2023-02-15T03:17:29;26.45;;;23.35;;
64738;SDS011;51175;51.186;0.276;2023-02-15T03:18:03;25.95;;;22.20;;
64738;SDS011;51175;51.186;0.276;2023-02-15T03:18:35;26.48;;;22.85;;
64738;SDS011;51175;51.186;0.276;2023-02-15T03:19:28;26.27;;;22.60;;
64738;SDS011;51175;51.186;0.276;2023-02-15T03:20:20;28.95;;;23.45;;
64738;SDS011;51175;51.186;0.276;2023-02-15T03:20:55;27.05;;;21.27;;
64738;SDS011;51175;51.186;0.276;2023-02-15T03:21:30;27.65;;;22.40;;
64738;SDS011;51175;51.186;0.276;2023-02-15T03:22:12;28.10;;;21.85;;
64738;SDS011;51175;51.186;0.276;2023-02-15T03:22:46;29.05;;;23.20;;
64738;SDS011;51175;51.186;0.276;2023-02-15T03:23:23;28.17;;;22.95;;
64738;SDS011;51175;51.186;0.276;2023-02-15T03:24:00;28.83;;;21.98;;
64738;SDS011;51175;51.186;0.276;2023-02-15T03:24:57;25.83;;;21.10;;
64738;SDS011;51175;51.186;0.276;2023-02-15T03:25:34;27.08;;;21.95;;
64738;SDS011;51175;51.186;0.276;2023-02-15T03:26:08;26.90;;;21.88;;
64738;SDS011;51175;51.186;0.276;2023-02-15T03:26:41;28.38;;;23.25;;
64738;SDS011;51175;51.186;0.276;2023-02-15T03:27:17;27.48;;;22.48;;
64738;SDS011;51175;51.186;0.276;2023-02-15T03:27:54;28.52;;;23.63;;
64738;SDS011;51175;51.186;0.276;2023-02-15T03:28:32;29.60;;;23.38;;
64738;SDS011;51175;51.186;0.276;2023-02-15T03:29:06;27.33;;;22.30;;
64738;SDS011;51175;51.186;0.276;2023-02-15T03:29:39;30.95;;;24.35;;
64738;SDS011;51175;51.186;0.276;2023-02-15T03:30:09;29.95;;;23.45;;
64738;SDS011;51175;51.186;0.276;2023-02-15T03:30:43;26.25;;;22.67;;
64738;SDS011;51175;51.186;0.276;2023-02-15T03:31:18;28.52;;;24.25;;
64738;SDS011;51175;51.186;0.276;2023-02-15T03:31:59;30.40;;;24.40;;
64738;SDS011;51175;51.186;0.276;2023-02-15T03:32:32;27.42;;;22.67;;
64738;SDS011;51175;51.186;0.276;2023-02-15T03:33:07;26.42;;;22.42;;
64738;SDS011;51175;51.186;0.276;2023-02-15T03:33:42;25.92;;;23.17;;
64738;SDS011;51175;51.186;0.276;2023-02-15T03:34:20;27.65;;;23.13;;
64738;SDS011;51175;51.186;0.276;2023-02-15T03:34:50;27.38;;;23.25;;
64738;SDS011;51175;51.186;0.276;2023-02-15T03:35:22;30.17;;;23.90;;
64738;SDS011;51175;51.186;0.276;2023-02-15T03:37:32;28.35;;;22.55;;
64738;SDS011;51175;51.186;0.276;2023-02-15T03:37:49;29.10;;;22.40;;